Time;durP1;ratioP1;P1;durP2;ratioP2;P2;SDS_P1;SDS_P2;PMS_P1;PMS_P2;Temp;Humidity;BMP_temperature;BMP_pressure;BME280_temperature;BME280_humidity;BME280_pressure;Samples;Min_cycle;Max_cycle;Signal;HPM_P1;HPM_P2
2023/10/29 00:00:17;;;;;;;6.10;2.33;;;10.50;99.90;;;10.01;100.00;95909.81;5056386;28;20074;-38
2023/10/29 00:02:44;;;;;;;4.05;1.60;;;10.50;99.90;;;10.02;100.00;95898.34;5054325;28;20020;-39
2023/10/29 00:05:09;;;;;;;3.53;1.73;;;10.50;99.90;;;10.00;100.00;95908.13;5053425;28;20032;-38
2023/10/29 00:07:35;;;;;;;3.83;1.50;;;10.50;99.90;;;9.92;100.00;95901.53;5055423;28;20388;-38
2023/10/29 00:10:01;;;;;;;2.45;1.30;;;10.40;99.90;;;9.97;100.00;95909.13;5053105;28;20032;-38
2023/10/29 00:12:26;;;;;;;2.28;1.40;;;10.50;99.90;;;9.97;100.00;95911.78;5057416;28;20473;-38
2023/10/29 00:14:52;;;;;;;3.35;1.67;;;10.50;99.90;;;9.98;100.00;95913.47;5055688;28;20175;-41
2023/10/29 00:17:18;;;;;;;2.85;1.40;;;10.40;99.90;;;9.89;100.00;95904.31;5055988;28;20115;-40
2023/10/29 00:19:43;;;;;;;3.10;1.40;;;10.40;99.90;;;9.96;100.00;95923.25;5054821;28;20102;-39
2023/10/29 00:22:09;;;;;;;2.92;1.35;;;10.40;99.90;;;9.99;100.00;95919.59;5051288;28;20039;-39
2023/10/29 00:24:35;;;;;;;2.33;1.25;;;10.40;99.90;;;10.01;100.00;95918.53;5055062;28;20375;-38
2023/10/29 00:27:00;;;;;;;2.13;1.13;;;10.50;99.90;;;10.03;100.00;95910.56;5051611;28;20032;-38
2023/10/29 00:29:26;;;;;;;1.70;1.08;;;10.50;99.90;;;10.04;100.00;95912.25;5057532;28;20218;-39
2023/10/29 00:31:52;;;;;;;4.70;1.48;;;10.50;99.90;;;10.04;100.00;95915.75;5053180;28;20032;-39
2023/10/29 00:34:17;;;;;;;3.42;1.40;;;10.50;99.90;;;10.05;100.00;95917.44;5054683;28;20028;-38
2023/10/29 00:36:43;;;;;;;3.55;1.35;;;10.50;99.90;;;10.06;100.00;95905.13;5054786;28;20059;-38
2023/10/29 00:39:09;;;;;;;2.30;1.20;;;10.50;99.90;;;10.02;100.00;95900.97;5054244;28;20033;-40
2023/10/29 00:41:35;;;;;;;3.28;1.10;;;10.50;99.90;;;9.94;100.00;95899.66;5055284;28;20440;-39
2023/10/29 00:44:01;;;;;;;4.22;1.05;;;10.50;99.90;;;9.93;100.00;95912.91;5049949;28;20032;-40
2023/10/29 00:46:26;;;;;;;2.05;1.15;;;10.40;99.90;;;9.88;100.00;95905.25;5055354;28;20036;-39
2023/10/29 00:48:52;;;;;;;2.60;0.93;;;10.40;99.90;;;9.86;100.00;95909.75;5055927;28;20021;-38
2023/10/29 00:51:18;;;;;;;3.00;1.10;;;10.40;99.90;;;9.91;100.00;95910.34;5054053;28;20029;-38
2023/10/29 00:53:45;;;;;;;3.15;1.20;;;10.40;99.90;;;9.89;100.00;95900.84;5055417;28;20021;-39
2023/10/29 00:56:12;;;;;;;1.83;1.05;;;10.40;99.90;;;9.99;100.00;95902.00;5053123;28;20451;-40
2023/10/29 00:58:39;;;;;;;3.28;1.20;;;10.50;99.90;;;10.04;100.00;95897.31;5038696;28;20040;-40
2023/10/29 01:01:05;;;;;;;2.15;1.25;;;10.50;99.90;;;10.09;100.00;95889.97;5051288;28;20027;-39
2023/10/29 01:03:31;;;;;;;1.77;1.23;;;10.60;99.90;;;10.16;100.00;95897.50;5036808;28;20029;-39
2023/10/29 01:05:57;;;;;;;1.63;1.08;;;10.60;99.90;;;10.20;100.00;95886.72;5054311;28;20087;-40
2023/10/29 01:08:25;;;;;;;2.90;1.08;;;10.70;99.90;;;10.20;100.00;95865.63;5035278;28;20204;-38
2023/10/29 01:10:51;;;;;;;3.72;1.40;;;10.70;99.90;;;10.28;100.00;95873.06;5035337;28;20624;-40
2023/10/29 01:13:17;;;;;;;1.67;1.08;;;10.80;99.90;;;10.31;100.00;95889.56;5053870;28;20105;-39
2023/10/29 01:15:43;;;;;;;1.88;1.02;;;10.80;99.90;;;10.29;100.00;95885.31;5052690;28;20481;-39
2023/10/29 01:18:09;;;;;;;2.47;1.10;;;10.80;99.90;;;10.33;100.00;95897.41;5053179;28;20035;-39
2023/10/29 01:20:35;;;;;;;2.75;1.20;;;10.80;99.90;;;10.33;100.00;95892.13;5056482;28;20050;-39
2023/10/29 01:23:01;;;;;;;1.90;1.08;;;10.80;99.90;;;10.34;100.00;95891.19;5053597;28;20395;-40
2023/10/29 01:25:27;;;;;;;1.88;1.10;;;10.80;99.90;;;10.36;100.00;95884.03;5055550;28;20033;-38
2023/10/29 01:27:53;;;;;;;1.77;1.00;;;10.80;99.90;;;10.37;100.00;95876.97;5037587;28;20033;-42
2023/10/29 01:30:19;;;;;;;3.28;1.02;;;10.80;99.90;;;10.36;100.00;95875.31;5052198;28;20043;-40
2023/10/29 01:32:45;;;;;;;1.55;0.80;;;10.80;99.90;;;10.27;100.00;95851.16;5057900;28;20068;-40
2023/10/29 01:35:10;;;;;;;1.15;0.90;;;10.80;99.90;;;10.34;100.00;95862.22;5052880;28;20032;-39
2023/10/29 01:37:36;;;;;;;1.85;1.20;;;10.80;99.90;;;10.31;100.00;95857.97;5055371;28;20391;-39
2023/10/29 01:40:02;;;;;;;3.05;1.05;;;10.70;99.90;;;10.23;100.00;95847.03;5053607;28;20040;-38
2023/10/29 01:42:28;;;;;;;2.80;1.10;;;10.80;99.90;;;10.25;100.00;95847.78;5055811;28;20020;-39
2023/10/29 01:44:53;;;;;;;2.70;1.00;;;10.70;99.90;;;10.21;100.00;95834.88;5053679;28;20750;-39
2023/10/29 01:47:19;;;;;;;3.88;1.00;;;10.70;99.90;;;10.22;100.00;95847.09;5052268;28;20484;-39
2023/10/29 01:49:45;;;;;;;3.08;0.93;;;10.60;99.90;;;10.16;100.00;95835.16;5056927;28;20033;-39
2023/10/29 01:52:10;;;;;;;1.17;0.77;;;10.60;99.90;;;10.13;100.00;95824.81;5053386;28;20037;-41
2023/10/29 01:54:37;;;;;;;3.03;1.05;;;10.60;99.90;;;10.12;100.00;95825.72;5054732;28;20032;-40
2023/10/29 01:57:03;;;;;;;2.25;1.00;;;10.50;99.90;;;10.13;100.00;95819.53;5053435;28;20459;-39
2023/10/29 01:59:30;;;;;;;4.18;1.00;;;10.60;99.90;;;10.09;100.00;95821.50;5053487;28;20066;-39
2023/10/29 02:01:55;;;;;;;2.67;1.08;;;10.60;99.90;;;10.13;100.00;95828.28;5056944;28;20024;-39
2023/10/29 02:04:26;;;;;;;3.60;0.93;;;10.60;99.90;;;10.16;100.00;95831.66;5055247;28;20037;-39
2023/10/29 02:06:53;;;;;;;2.75;1.17;;;10.60;99.90;;;10.12;100.00;95823.97;5052334;28;20070;-39
2023/10/29 02:09:19;;;;;;;2.63;1.08;;;10.60;99.90;;;10.13;100.00;95817.72;5058303;28;20527;-39
2023/10/29 02:11:44;;;;;;;1.42;1.05;;;10.60;99.90;;;10.11;100.00;95806.44;5058675;28;20036;-39
2023/10/29 02:14:10;;;;;;;1.90;1.02;;;10.60;99.90;;;10.13;100.00;95819.53;5056479;28;20036;-40
2023/10/29 02:16:36;;;;;;;1.77;1.00;;;10.60;99.90;;;10.08;100.00;95804.00;5057588;28;20437;-39
2023/10/29 02:19:03;;;;;;;1.95;1.00;;;10.50;99.90;;;10.05;100.00;95813.88;5054028;28;20083;-39
2023/10/29 02:21:29;;;;;;;2.33;1.05;;;10.50;99.90;;;10.02;100.00;95798.28;5058835;28;20079;-39
2023/10/29 02:23:55;;;;;;;3.15;1.13;;;10.50;99.90;;;10.02;100.00;95793.84;5058400;28;20064;-39
2023/10/29 02:26:24;;;;;;;1.67;0.88;;;10.50;99.90;;;10.00;100.00;95787.81;5055041;28;20039;-39
2023/10/29 02:28:49;;;;;;;2.33;0.90;;;10.50;99.90;;;10.00;100.00;95787.81;5058767;28;20116;-39
2023/10/29 02:31:17;;;;;;;2.08;1.00;;;10.50;99.90;;;9.97;100.00;95785.38;5056541;28;20112;-38
2023/10/29 02:33:43;;;;;;;1.90;0.90;;;10.50;99.90;;;10.04;100.00;95801.66;5056669;28;20124;-39
2023/10/29 02:36:10;;;;;;;1.42;0.88;;;10.50;99.90;;;10.09;100.00;95789.91;5054596;28;20041;-39
2023/10/29 02:38:37;;;;;;;1.35;0.70;;;10.60;99.90;;;10.18;100.00;95793.75;5058274;28;20110;-39
2023/10/29 02:41:06;;;;;;;2.10;0.93;;;10.60;99.90;;;10.27;100.00;95795.00;5038460;28;20036;-39
2023/10/29 02:43:33;;;;;;;1.33;0.95;;;10.70;99.90;;;10.29;100.00;95791.31;5053595;28;20020;-40
2023/10/29 02:45:59;;;;;;;1.98;0.93;;;10.70;99.90;;;10.34;100.00;95798.97;5056125;28;20032;-39
2023/10/29 02:48:25;;;;;;;2.03;0.80;;;10.80;99.90;;;10.35;100.00;95800.66;5056586;28;20063;-38
2023/10/29 02:50:53;;;;;;;2.50;1.00;;;10.80;99.90;;;10.37;100.00;95797.94;5056238;28;20472;-39
2023/10/29 02:53:19;;;;;;;3.70;1.02;;;10.80;99.90;;;10.39;100.00;95794.28;5058644;28;22392;-38
2023/10/29 02:55:45;;;;;;;1.42;1.00;;;10.90;99.90;;;10.45;100.00;95791.25;5057229;28;20024;-38
2023/10/29 02:58:10;;;;;;;2.25;1.10;;;10.90;99.90;;;10.50;100.00;95788.34;5055303;28;20033;-38
2023/10/29 03:00:36;;;;;;;5.63;1.20;;;11.00;99.90;;;10.40;100.00;95768.75;5058363;28;20033;-38
2023/10/29 03:03:02;;;;;;;2.47;0.90;;;11.00;99.90;;;10.41;100.00;95759.91;5056256;28;20516;-39
2023/10/29 03:05:27;;;;;;;2.38;1.17;;;11.00;99.90;;;10.52;100.00;95778.53;5054268;28;20032;-38
2023/10/29 03:07:53;;;;;;;1.42;0.82;;;11.00;99.90;;;10.48;100.00;95784.91;5055953;28;20498;-38
2023/10/29 03:10:19;;;;;;;2.22;0.88;;;11.00;99.90;;;10.43;100.00;95793.13;5055415;28;20481;-39
2023/10/29 03:12:45;;;;;;;1.45;0.90;;;10.90;99.90;;;10.34;100.00;95777.91;5054248;28;20034;-38
2023/10/29 03:15:10;;;;;;;1.77;1.10;;;10.90;99.90;;;10.37;100.00;95790.84;5056056;28;20032;-38
2023/10/29 03:17:36;;;;;;;1.52;0.90;;;10.80;99.90;;;10.36;100.00;95780.44;5048388;28;20392;-39
2023/10/29 03:20:03;;;;;;;3.47;0.90;;;10.80;99.90;;;10.22;100.00;95768.06;5056234;28;20055;-39
2023/10/29 03:22:28;;;;;;;1.27;0.82;;;10.80;99.90;;;10.30;100.00;95782.47;5060990;28;20025;-38
2023/10/29 03:24:54;;;;;;;1.77;0.98;;;10.70;99.90;;;10.27;100.00;95776.56;5056317;28;20039;-39
2023/10/29 03:27:21;;;;;;;1.90;0.75;;;10.80;99.90;;;10.27;100.00;95779.19;5057922;28;20053;-39
2023/10/29 03:29:47;;;;;;;1.65;0.90;;;10.70;99.90;;;10.25;100.00;95789.81;5056854;28;20362;-40
2023/10/29 03:32:12;;;;;;;1.92;0.90;;;10.70;99.90;;;10.26;100.00;95782.75;5058479;28;20040;-39
2023/10/29 03:34:38;;;;;;;1.42;0.77;;;10.70;99.90;;;10.27;100.00;95781.81;5056726;28;20032;-40
2023/10/29 03:37:05;;;;;;;1.42;0.93;;;10.70;99.90;;;10.28;100.00;95786.13;5057824;28;20024;-40
2023/10/29 03:39:31;;;;;;;1.15;0.88;;;10.70;99.90;;;10.29;100.00;95791.31;5058321;28;20487;-40
2023/10/29 03:41:57;;;;;;;2.05;0.80;;;10.70;99.90;;;10.29;100.00;95793.94;5057421;28;20024;-38
2023/10/29 03:44:23;;;;;;;1.95;0.70;;;10.70;99.90;;;10.31;100.00;95792.09;5056956;28;20842;-39
2023/10/29 03:46:52;;;;;;;2.20;0.80;;;10.80;99.90;;;10.30;100.00;95790.38;5056101;28;20078;-40
2023/10/29 03:49:18;;;;;;;2.03;0.95;;;10.70;99.90;;;10.23;100.00;95786.44;5043956;28;20272;-38
2023/10/29 03:51:46;;;;;;;3.13;1.10;;;10.70;99.90;;;10.21;100.00;95793.59;5056994;28;20353;-38
2023/10/29 03:54:12;;;;;;;2.75;0.90;;;10.70;99.90;;;10.17;100.00;95788.59;5053653;28;20032;-39
2023/10/29 03:56:38;;;;;;;1.08;0.75;;;10.60;99.90;;;10.12;100.00;95792.34;5056656;28;20033;-38
2023/10/29 03:59:03;;;;;;;1.40;0.80;;;10.60;99.90;;;10.09;100.00;95786.41;5051916;28;20079;-40
2023/10/29 04:01:29;;;;;;;1.17;0.73;;;10.50;99.90;;;10.06;100.00;95795.34;5055622;28;20060;-39
2023/10/29 04:03:55;;;;;;;2.28;0.82;;;10.50;99.90;;;10.03;100.00;95792.91;5053760;28;20028;-39
2023/10/29 04:06:21;;;;;;;3.60;0.90;;;10.50;99.90;;;9.99;100.00;95786.13;5051975;28;20150;-39
2023/10/29 04:08:47;;;;;;;1.90;0.70;;;10.50;99.90;;;9.96;100.00;95783.69;5056922;28;20068;-39
2023/10/29 04:11:13;;;;;;;4.28;1.00;;;10.40;99.90;;;9.95;100.00;95792.50;5034674;28;20452;-39
2023/10/29 04:13:39;;;;;;;2.58;0.80;;;10.40;99.90;;;9.96;100.00;95785.47;5055400;28;20412;-39
2023/10/29 04:16:05;;;;;;;2.17;0.82;;;10.40;99.90;;;9.98;100.00;95770.41;5051120;28;20065;-40
2023/10/29 04:18:31;;;;;;;2.53;0.93;;;10.50;99.90;;;10.19;100.00;95779.63;5054179;28;20700;-41
2023/10/29 04:20:58;;;;;;;1.58;0.75;;;10.60;99.90;;;10.29;100.00;95780.78;5054389;28;20038;-39
2023/10/29 04:23:24;;;;;;;0.98;0.70;;;10.70;99.90;;;10.35;100.00;95779.56;5051937;28;20016;-39
2023/10/29 04:25:49;;;;;;;1.33;0.57;;;10.80;99.90;;;10.40;100.00;95772.22;5056144;28;20052;-39
2023/10/29 04:28:15;;;;;;;0.85;0.60;;;10.80;99.90;;;10.44;100.00;95765.81;5054003;28;20316;-39
2023/10/29 04:30:41;;;;;;;1.80;0.88;;;10.90;99.90;;;10.51;100.00;95768.94;5051639;28;20028;-38
2023/10/29 04:33:08;;;;;;;1.65;0.68;;;11.00;99.90;;;10.54;100.00;95755.56;5051260;28;20226;-39
2023/10/29 04:35:33;;;;;;;2.13;0.65;;;11.00;99.90;;;10.63;100.00;95762.88;5053699;28;20111;-39
2023/10/29 04:37:59;;;;;;;1.65;0.70;;;11.10;99.90;;;10.73;100.00;95757.91;5055209;28;20044;-39
2023/10/29 04:40:25;;;;;;;2.30;0.70;;;11.20;99.90;;;10.88;100.00;95758.69;5055946;28;20122;-38
2023/10/29 04:42:50;;;;;;;2.42;0.98;;;11.30;99.90;;;10.98;100.00;95762.44;5058702;28;20720;-40
2023/10/29 04:45:16;;;;;;;1.92;0.80;;;11.40;99.90;;;11.01;100.00;95754.31;5058076;28;20040;-40
2023/10/29 04:47:42;;;;;;;0.75;0.50;;;11.50;99.90;;;11.16;100.00;95770.94;5060069;28;20112;-39
2023/10/29 04:50:08;;;;;;;0.75;0.57;;;11.60;99.90;;;11.23;95.61;95772.25;5054549;28;20067;-38
2023/10/29 04:52:34;;;;;;;2.42;0.80;;;11.60;99.90;;;11.28;94.85;95769.28;5058544;28;20044;-40
2023/10/29 04:55:05;;;;;;;0.82;0.63;;;11.70;99.90;;;11.31;95.07;95769.09;5058012;28;20024;-39
2023/10/29 04:57:30;;;;;;;0.98;0.60;;;11.70;99.90;;;11.32;96.79;95772.56;5058716;28;20067;-39
2023/10/29 04:59:57;;;;;;;1.35;0.82;;;11.70;99.90;;;11.25;98.48;95765.06;5056031;28;20492;-39
2023/10/29 05:02:22;;;;;;;1.90;0.77;;;11.70;99.90;;;11.26;98.89;95769.38;5056302;28;20040;-38
2023/10/29 05:04:51;;;;;;;2.72;0.80;;;11.70;99.90;;;11.26;99.76;95766.75;5058897;28;20037;-39
2023/10/29 05:07:17;;;;;;;3.17;0.90;;;11.70;99.90;;;11.29;96.09;95760.44;5056158;28;20040;-39
2023/10/29 05:09:42;;;;;;;1.65;0.90;;;11.70;99.90;;;11.30;98.43;95756.00;5057401;28;20515;-39
2023/10/29 05:12:08;;;;;;;3.65;0.70;;;11.70;99.90;;;11.28;100.00;95746.38;5054895;28;20040;-39
2023/10/29 05:14:34;;;;;;;0.60;0.60;;;11.70;99.90;;;11.20;100.00;95743.41;5054961;28;20055;-40
2023/10/29 05:16:59;;;;;;;0.90;0.60;;;11.70;99.90;;;11.23;100.00;95739.72;5053018;28;20428;-40
2023/10/29 05:19:25;;;;;;;2.00;0.70;;;11.60;99.90;;;11.15;100.00;95737.59;5038395;28;20037;-40
2023/10/29 05:21:51;;;;;;;2.17;0.90;;;11.60;99.90;;;11.09;100.00;95738.00;5057011;28;20032;-39
2023/10/29 05:24:17;;;;;;;1.35;0.70;;;11.50;99.90;;;11.01;100.00;95735.84;5052945;28;20535;-40
2023/10/29 05:26:43;;;;;;;0.98;0.50;;;11.50;99.90;;;11.00;100.00;95743.84;5053010;28;20021;-41
2023/10/29 05:29:09;;;;;;;0.90;0.65;;;11.40;99.90;;;10.99;100.00;95748.28;5053166;28;20056;-40
2023/10/29 05:31:34;;;;;;;0.93;0.70;;;11.40;99.90;;;10.99;100.00;95745.66;5055175;28;20083;-39
2023/10/29 05:34:01;;;;;;;2.78;0.80;;;11.40;99.90;;;10.97;100.00;95733.53;5054010;28;20027;-39
2023/10/29 05:36:27;;;;;;;2.40;0.70;;;11.40;99.90;;;10.95;100.00;95730.13;5056016;28;20439;-39
2023/10/29 05:38:53;;;;;;;1.40;0.70;;;11.40;99.90;;;10.96;100.00;95743.19;5059558;28;20035;-40
2023/10/29 05:41:19;;;;;;;1.08;0.70;;;11.40;99.90;;;10.96;100.00;95748.47;5056982;28;20028;-38
2023/10/29 05:43:45;;;;;;;0.35;0.35;;;11.40;99.90;;;10.95;100.00;95751.25;5060284;28;20025;-39
2023/10/29 05:46:15;;;;;;;3.53;0.80;;;11.40;99.90;;;10.98;100.00;95754.53;5053826;28;20044;-38
2023/10/29 05:48:41;;;;;;;0.80;0.70;;;11.40;99.90;;;10.94;100.00;95745.09;5058193;28;20066;-38
2023/10/29 05:51:08;;;;;;;3.45;0.80;;;11.40;99.90;;;10.98;100.00;95751.88;5052394;28;20033;-38
2023/10/29 05:53:33;;;;;;;1.10;0.75;;;11.40;99.90;;;10.99;100.00;95748.28;5057750;28;20496;-38
2023/10/29 05:55:59;;;;;;;1.05;0.60;;;11.40;99.90;;;11.01;100.00;95730.56;5056940;28;20043;-39
2023/10/29 05:58:25;;;;;;;1.23;0.68;;;11.50;99.90;;;11.02;100.00;95739.34;5060524;28;20029;-38
2023/10/29 06:00:51;;;;;;;1.10;0.70;;;11.50;99.90;;;11.04;100.00;95746.19;5058148;28;20036;-40
2023/10/29 06:03:16;;;;;;;1.00;0.85;;;11.50;99.90;;;11.05;100.00;95745.28;5054701;28;20099;-39
2023/10/29 06:05:42;;;;;;;1.08;0.60;;;11.50;99.90;;;11.09;100.00;95738.00;5058778;28;20028;-39
2023/10/29 06:08:08;;;;;;;0.75;0.45;;;11.50;99.90;;;11.10;100.00;95731.75;5054760;28;20025;-40
2023/10/29 06:10:34;;;;;;;2.55;0.68;;;11.50;99.90;;;11.12;100.00;95748.31;5057568;28;20029;-38
2023/10/29 06:12:59;;;;;;;1.13;0.70;;;11.50;99.90;;;11.12;100.00;95745.69;5057601;28;20040;-39
2023/10/29 06:15:26;;;;;;;1.08;0.70;;;11.50;99.90;;;11.09;100.00;95753.81;5058174;28;20463;-38
2023/10/29 06:17:53;;;;;;;1.00;0.70;;;11.50;99.90;;;11.12;100.00;95766.78;5058593;28;20028;-39
2023/10/29 06:20:21;;;;;;;0.93;0.57;;;11.50;99.90;;;11.14;100.00;95770.19;5055605;28;20044;-38
2023/10/29 06:22:49;;;;;;;2.08;0.90;;;11.60;99.90;;;11.25;100.00;95780.91;5058683;28;20029;-39
2023/10/29 06:25:16;;;;;;;0.80;0.60;;;11.60;99.90;;;11.37;98.79;95781.03;5056929;28;20539;-38
2023/10/29 06:27:42;;;;;;;0.68;0.60;;;11.80;99.90;;;11.46;99.78;95781.25;5058500;28;20063;-38
2023/10/29 06:30:11;;;;;;;1.50;0.85;;;11.90;99.90;;;11.53;100.00;95781.69;5057783;28;20120;-39
2023/10/29 06:32:37;;;;;;;3.53;0.60;;;11.90;99.90;;;11.60;100.00;95771.59;5057353;28;20508;-39
2023/10/29 06:35:03;;;;;;;1.08;0.70;;;12.00;99.90;;;11.68;100.00;95786.91;5056890;28;20033;-38
2023/10/29 06:37:29;;;;;;;1.13;0.50;;;12.10;99.90;;;11.73;100.00;95796.19;5059294;28;20035;-39
2023/10/29 06:39:56;;;;;;;1.00;0.60;;;12.10;99.90;;;11.75;100.00;95798.75;5059473;28;20039;-39
2023/10/29 06:42:21;;;;;;;1.95;0.55;;;12.20;99.90;;;11.77;100.00;95805.63;5057025;28;20024;-39
2023/10/29 06:44:47;;;;;;;0.73;0.60;;;12.20;99.90;;;11.83;100.00;95812.28;5059741;28;20397;-38
2023/10/29 06:47:14;;;;;;;1.00;0.50;;;12.30;99.90;;;11.87;100.00;95808.50;5057910;28;20024;-41
2023/10/29 06:49:40;;;;;;;0.95;0.70;;;12.30;99.90;;;11.89;100.00;95821.59;5056626;28;20827;-39
2023/10/29 06:52:07;;;;;;;1.75;0.93;;;12.30;99.90;;;11.95;100.00;95826.47;5058803;28;20032;-39
2023/10/29 06:54:34;;;;;;;1.05;0.65;;;12.40;99.90;;;12.03;98.06;95835.59;5057810;28;20067;-39
2023/10/29 06:57:01;;;;;;;2.17;0.60;;;12.40;99.90;;;12.10;98.10;95840.47;5059394;28;20460;-39
2023/10/29 06:59:31;;;;;;;3.80;0.90;;;12.50;99.90;;;12.15;98.50;95852.41;5058757;28;20032;-38
2023/10/29 07:01:58;;;;;;;1.10;0.65;;;12.60;99.90;;;12.24;93.00;95850.94;5060689;28;20377;-39
2023/10/29 07:04:27;;;;;;;1.25;0.40;;;12.60;99.90;;;12.34;95.05;95845.88;5056220;28;20039;-38
2023/10/29 07:06:53;;;;;;;0.90;0.60;;;12.80;99.90;;;12.50;92.24;95856.22;5057642;28;20405;-38
2023/10/29 07:09:18;;;;;;;1.23;0.80;;;12.90;99.90;;;12.62;92.06;95862.47;5059050;28;20024;-39
2023/10/29 07:11:45;;;;;;;2.45;0.70;;;13.00;99.90;;;12.73;88.04;95866.06;5059849;28;20029;-38
2023/10/29 07:14:12;;;;;;;1.70;0.60;;;13.10;99.90;;;12.86;86.01;95860.75;5056970;28;20027;-38
2023/10/29 07:16:44;;;;;;;1.00;0.60;;;13.20;99.90;;;12.98;83.60;95869.63;5038780;28;20057;-38
2023/10/29 07:19:11;;;;;;;3.45;0.60;;;13.40;99.90;;;13.07;85.21;95854.91;5060609;28;20505;-39
2023/10/29 07:21:37;;;;;;;2.15;0.85;;;13.50;99.90;;;13.16;87.05;95867.47;5057652;28;20432;-40
2023/10/29 07:24:05;;;;;;;2.25;0.63;;;13.60;99.90;;;13.13;86.58;95847.34;5058038;28;20502;-40
2023/10/29 07:26:34;;;;;;;0.45;0.35;;;13.60;99.90;;;13.31;83.60;95869.03;5058443;28;20198;-41
2023/10/29 07:29:01;;;;;;;2.30;0.88;;;13.70;99.90;;;13.36;85.75;95868.69;5058639;28;20532;-41
2023/10/29 07:31:27;;;;;;;2.90;0.73;;;13.80;99.90;;;13.38;88.20;95866.78;5055017;28;20037;-38
2023/10/29 07:33:52;;;;;;;2.67;0.90;;;13.80;99.90;;;13.40;85.65;95872.81;5058423;28;20028;-38
2023/10/29 07:36:22;;;;;;;1.55;0.73;;;13.90;99.90;;;13.42;96.19;95865.59;5054218;28;20477;-39
2023/10/29 07:38:48;;;;;;;1.10;0.70;;;13.90;99.90;;;13.40;86.98;95870.16;5059710;28;20389;-38
2023/10/29 07:41:20;;;;;;;2.25;1.10;;;13.90;99.90;;;13.36;88.63;95874.84;5055278;28;20500;-38
2023/10/29 07:43:47;;;;;;;2.08;1.00;;;13.80;99.90;;;13.39;87.10;95883.50;5057449;28;20033;-39
2023/10/29 07:46:13;;;;;;;1.67;0.80;;;13.80;99.90;;;13.33;88.20;95880.38;5055146;28;20036;-39
2023/10/29 07:48:38;;;;;;;2.20;0.65;;;13.70;99.90;;;13.31;88.09;95876.97;5055229;28;20036;-38
2023/10/29 07:51:04;;;;;;;1.08;0.63;;;13.70;99.90;;;13.33;87.74;95879.50;5057923;28;20040;-38
2023/10/29 07:53:32;;;;;;;2.35;0.80;;;13.70;99.90;;;13.30;87.08;95875.25;5056768;28;20079;-38
2023/10/29 07:56:13;;;;;;;1.08;0.70;;;13.80;99.90;;;13.29;90.17;95878.84;5058168;28;20481;-39
2023/10/29 07:58:39;;;;;;;1.80;0.70;;;13.80;99.90;;;13.34;92.52;95892.63;5056012;28;20142;-39
2023/10/29 08:01:13;;;;;;;0.80;0.80;;;13.70;99.90;;;13.25;93.71;95895.06;5056992;28;20590;-39
2023/10/29 08:03:44;;;;;;;2.38;0.60;;;13.80;99.90;;;13.30;99.85;95909.66;5058047;28;20508;-39
2023/10/29 08:06:11;;;;;;;2.92;0.90;;;13.70;99.90;;;13.28;100.00;95921.31;5056149;28;20024;-39
2023/10/29 08:08:38;;;;;;;8.88;0.80;;;13.70;99.90;;;13.22;100.00;95913.81;5057933;28;20098;-38
2023/10/29 08:11:04;;;;;;;1.40;0.60;;;13.70;99.90;;;13.26;100.00;95924.09;5060624;28;20025;-40
2023/10/29 08:13:30;;;;;;;0.98;0.60;;;13.70;99.90;;;13.31;100.00;95923.78;5053653;28;20102;-40
2023/10/29 08:15:57;;;;;;;0.90;0.70;;;13.80;99.90;;;13.45;99.93;95915.69;5057258;28;20037;-40
2023/10/29 08:18:22;;;;;;;2.38;0.80;;;13.90;99.90;;;13.58;94.38;95909.50;5054680;28;20031;-39
2023/10/29 08:20:48;;;;;;;2.20;1.05;;;14.00;99.90;;;13.74;91.21;95907.44;5057064;28;20319;-40
2023/10/29 08:23:14;;;;;;;3.72;0.70;;;14.10;99.90;;;13.81;94.36;95913.13;5056438;28;20020;-40
2023/10/29 08:25:40;;;;;;;3.10;1.55;;;14.20;99.90;;;13.84;91.43;95921.69;5057451;28;20041;-38
2023/10/29 08:28:09;;;;;;;1.17;0.90;;;14.30;99.90;;;13.89;87.54;95924.84;5060507;28;20048;-38
2023/10/29 08:30:35;;;;;;;3.13;1.00;;;14.30;99.90;;;13.96;92.66;95930.53;5056333;28;20085;-40
2023/10/29 08:33:01;;;;;;;2.65;1.10;;;14.30;99.90;;;13.96;90.09;95940.28;5056664;28;20043;-39
2023/10/29 08:35:27;;;;;;;2.60;0.90;;;14.40;99.90;;;13.96;89.70;95940.28;5054077;28;20489;-38
2023/10/29 08:37:53;;;;;;;1.52;0.93;;;14.30;99.90;;;13.95;89.10;95947.41;5058872;28;20391;-38
2023/10/29 08:40:19;;;;;;;1.85;0.70;;;14.40;99.90;;;13.98;92.48;95943.69;5057210;28;20021;-38
2023/10/29 08:42:44;;;;;;;1.90;0.80;;;14.40;99.90;;;14.03;91.00;95953.00;5059522;28;20032;-39
2023/10/29 08:45:12;;;;;;;1.02;0.68;;;14.40;99.90;;;14.08;90.32;95950.00;5064584;28;20028;-39
2023/10/29 08:47:38;;;;;;;1.65;0.95;;;14.50;99.90;;;14.08;96.49;95950.84;5062968;28;20478;-40
2023/10/29 08:50:06;;;;;;;2.15;0.90;;;14.50;99.90;;;14.08;92.85;95945.53;5065489;28;20037;-39
2023/10/29 08:52:32;;;;;;;1.33;0.70;;;14.50;99.90;;;14.11;91.22;95949.78;5057375;28;20105;-40
2023/10/29 08:54:57;;;;;;;1.23;0.60;;;14.50;99.90;;;14.13;90.90;95937.25;5055909;28;20520;-42
2023/10/29 08:57:23;;;;;;;3.42;0.90;;;14.50;99.90;;;14.23;98.32;95938.25;5054689;28;20063;-39
2023/10/29 08:59:49;;;;;;;3.25;1.13;;;14.60;99.90;;;14.28;90.88;95933.47;5055904;28;20028;-39
2023/10/29 09:02:15;;;;;;;0.85;0.70;;;14.70;99.90;;;14.39;94.10;95926.47;5055498;28;20048;-40
2023/10/29 09:04:40;;;;;;;1.52;0.82;;;14.80;99.90;;;14.51;100.00;95920.25;5056783;28;20101;-38
2023/10/29 09:07:07;;;;;;;4.75;0.70;;;14.90;99.90;;;14.62;100.00;95922.94;5038460;28;20040;-40
2023/10/29 09:09:33;;;;;;;1.08;0.80;;;15.00;99.90;;;14.76;98.38;95916.59;5053688;28;20029;-39
2023/10/29 09:11:59;;;;;;;1.48;0.60;;;15.10;99.90;;;14.95;98.48;95912.50;5060101;28;20037;-40
2023/10/29 09:14:24;;;;;;;1.25;0.80;;;15.30;99.90;;;15.16;95.56;95907.31;5059043;28;20041;-39
2023/10/29 09:16:50;;;;;;;1.55;1.05;;;15.50;99.90;;;15.35;93.29;95915.50;5062000;28;20075;-39
2023/10/29 09:19:16;;;;;;;1.15;0.75;;;15.70;99.90;;;15.54;92.76;95914.03;5060785;28;20031;-39
2023/10/29 09:21:44;;;;;;;2.72;0.93;;;15.90;99.90;;;15.61;90.75;95912.56;5062149;28;20055;-40
2023/10/29 09:24:09;;;;;;;2.03;0.85;;;15.90;99.90;;;15.69;91.21;95912.81;5039908;28;20021;-39
2023/10/29 09:26:36;;;;;;;2.65;0.85;;;16.00;99.90;;;15.73;93.93;95906.25;5060280;28;20124;-39
2023/10/29 09:29:05;;;;;;;2.10;0.90;;;16.10;99.90;;;15.70;90.18;95897.69;5061402;28;20128;-38
2023/10/29 09:31:31;;;;;;;1.45;0.90;;;16.00;99.90;;;15.61;96.05;95886.00;5058719;28;20036;-40
2023/10/29 09:33:56;;;;;;;2.08;0.90;;;16.00;99.90;;;15.53;94.55;95878.66;5062943;28;20051;-40
2023/10/29 09:36:22;;;;;;;1.95;1.15;;;15.90;99.90;;;15.42;100.00;95876.03;5058993;28;20122;-38
2023/10/29 09:38:48;;;;;;;2.13;1.00;;;15.80;99.90;;;15.31;100.00;95871.59;5058564;28;20037;-38
2023/10/29 09:41:18;;;;;;;1.60;1.00;;;15.70;99.90;;;15.21;98.11;95882.09;5061217;28;20024;-39
2023/10/29 09:43:44;;;;;;;1.73;0.80;;;15.60;99.90;;;15.08;99.18;95881.38;5059430;28;20223;-38
2023/10/29 09:46:11;;;;;;;2.42;0.80;;;15.40;99.90;;;14.91;100.00;95874.72;5059309;28;20043;-41
2023/10/29 09:48:38;;;;;;;2.45;1.60;;;15.30;99.90;;;14.79;100.00;95859.78;5062092;28;20036;-39
2023/10/29 09:51:07;;;;;;;2.88;1.73;;;15.20;99.90;;;14.88;100.00;95870.53;5059652;28;20048;-38
2023/10/29 09:53:38;;;;;;;2.85;1.73;;;15.20;99.90;;;14.98;100.00;95878.59;5057323;28;20063;-40
2023/10/29 09:56:12;;;;;;;2.55;1.17;;;15.30;99.90;;;15.06;100.00;95868.22;5061956;28;20043;-39
2023/10/29 09:58:38;;;;;;;2.25;1.00;;;15.40;99.90;;;15.21;100.00;95862.66;5044738;28;20028;-38
2023/10/29 10:01:05;;;;;;;2.22;1.10;;;15.50;99.90;;;15.31;100.00;95866.28;5058545;28;20013;-39
2023/10/29 10:03:31;;;;;;;1.80;1.00;;;15.60;99.90;;;15.41;100.00;95851.25;5057159;28;20066;-41
2023/10/29 10:05:58;;;;;;;1.35;0.80;;;15.70;99.90;;;15.48;100.00;95843.66;5061960;28;20025;-39
2023/10/29 10:08:28;;;;;;;2.10;1.05;;;15.80;99.90;;;15.55;100.00;95844.84;5056380;28;20048;-43
2023/10/29 10:10:57;;;;;;;1.85;1.02;;;15.80;99.90;;;15.59;99.71;95846.25;5057420;28;20028;-39